createdAt,value
2022-09-15T00:01:21.955Z,96936.53
2022-09-15T00:03:50.793Z,96937.53
2022-09-15T00:06:19.292Z,96934.84
2022-09-15T00:08:49.397Z,96933.81
2022-09-15T00:11:19.782Z,96929.47
2022-09-15T00:13:48.201Z,96929.47
2022-09-15T00:16:16.837Z,96930.28
2022-09-15T00:18:46.168Z,96923.28
2022-09-15T00:21:16.658Z,96916.03
2022-09-15T00:23:45.286Z,96906.94
2022-09-15T00:26:18.326Z,96899.91
2022-09-15T00:28:47.214Z,96905.28
2022-09-15T00:31:17.367Z,96907.16
2022-09-15T00:33:48.128Z,96892.88
2022-09-15T00:36:16.786Z,96896.41
2022-09-15T00:38:45.639Z,96900.13
2022-09-15T00:41:19.266Z,96899.09
2022-09-15T00:43:52.847Z,96892.88
2022-09-15T00:46:22.899Z,96887.50
2022-09-15T00:48:59.190Z,96887.50
2022-09-15T00:51:32.674Z,96878.63
2022-09-15T00:54:02.296Z,96883.16
2022-09-15T00:56:32.425Z,96879.44
2022-09-15T00:59:02.764Z,96880.25
2022-09-15T01:01:32.381Z,96865.19
2022-09-15T01:04:00.917Z,96860.63
2022-09-15T01:06:35.028Z,96859.81
2022-09-15T01:09:08.746Z,96849.06
2022-09-15T01:11:38.718Z,96848.22
2022-09-15T01:14:07.502Z,96843.69
2022-09-15T01:16:46.402Z,96840.16
2022-09-15T01:20:03.041Z,96842.03
2022-09-15T01:22:38.136Z,96842.84
2022-09-15T01:25:11.315Z,96833.75
2022-09-15T01:28:22.863Z,96840.16
2022-09-15T01:30:53.445Z,96840.16
2022-09-15T01:33:26.355Z,96838.31
2022-09-15T01:36:01.107Z,96833.75
2022-09-15T01:38:38.520Z,96837.47
2022-09-15T01:41:09.580Z,96836.44
2022-09-15T01:43:42.594Z,96829.41
2022-09-15T01:46:12.771Z,96831.25
2022-09-15T01:48:41.344Z,96829.41
2022-09-15T01:51:10.023Z,96834.78
2022-09-15T01:53:38.812Z,96828.56
2022-09-15T01:56:08.831Z,96835.81
2022-09-15T01:58:37.922Z,96839.31
2022-09-15T02:01:09.688Z,96825.88
2022-09-15T02:03:44.733Z,96815.94
2022-09-15T02:06:19.178Z,96813.28
2022-09-15T02:08:52.485Z,96803.56
2022-09-15T02:11:21.984Z,96804.38
2022-09-15T02:13:58.610Z,96796.13
2022-09-15T02:16:30.603Z,96796.31
2022-09-15T02:19:11.587Z,96793.63
2022-09-15T02:21:54.082Z,96798.00
2022-09-15T02:24:25.809Z,96803.56
2022-09-15T02:26:55.301Z,96792.81
2022-09-15T02:29:24.922Z,96793.88
2022-09-15T02:31:54.231Z,96799.00
2022-09-15T02:34:27.061Z,96799.25
2022-09-15T02:36:55.781Z,96795.50
2022-09-15T02:39:28.115Z,96787.44
2022-09-15T02:41:56.804Z,96795.50
2022-09-15T02:44:25.462Z,96792.81
2022-09-15T02:46:54.122Z,96791.19
2022-09-15T02:49:24.320Z,96794.69
2022-09-15T02:51:52.742Z,96792.81
2022-09-15T02:54:21.623Z,96787.44
2022-09-15T02:56:50.478Z,96786.63
2022-09-15T02:59:19.010Z,96790.94
2022-09-15T03:01:47.717Z,96782.06
2022-09-15T03:04:16.608Z,96784.75
2022-09-15T03:06:46.370Z,96778.56
2022-09-15T03:09:14.991Z,96778.56
2022-09-15T03:11:43.624Z,96777.50
2022-09-15T03:14:12.063Z,96770.50
2022-09-15T03:16:40.596Z,96780.44
2022-09-15T03:19:09.104Z,96782.06
2022-09-15T03:21:37.953Z,96775.88
2022-09-15T03:24:07.878Z,96791.19
2022-09-15T03:26:36.733Z,96781.25
2022-09-15T03:29:05.480Z,96765.94
2022-09-15T03:31:33.942Z,96783.13
2022-09-15T03:34:02.443Z,96776.88
2022-09-15T03:36:30.994Z,96774.19
2022-09-15T03:38:59.498Z,96774.19
2022-09-15T03:41:29.424Z,96773.19
2022-09-15T03:43:57.911Z,96755.38
2022-09-15T03:46:26.273Z,96765.31
2022-09-15T03:48:54.800Z,96772.56
2022-09-15T03:51:23.203Z,96761.81
2022-09-15T03:53:52.006Z,96769.69
2022-09-15T03:56:24.877Z,96766.13
2022-09-15T03:58:54.990Z,96765.31
2022-09-15T04:01:23.571Z,96758.94
2022-09-15T04:03:52.343Z,96762.63
2022-09-15T04:06:21.059Z,96763.44
2022-09-15T04:08:50.021Z,96765.31
2022-09-15T04:11:19.162Z,96763.69
2022-09-15T04:13:48.187Z,96757.25
2022-09-15T04:16:19.430Z,96758.94
2022-09-15T04:18:47.978Z,96758.06
2022-09-15T04:21:18.349Z,96768.00
2022-09-15T04:23:46.852Z,96768.00
2022-09-15T04:26:18.709Z,96774.19
2022-09-15T04:28:47.440Z,96768.81
2022-09-15T04:31:18.256Z,96769.69
2022-09-15T04:33:47.220Z,96775.06
2022-09-15T04:36:17.479Z,96774.00
2022-09-15T04:38:46.226Z,96770.50
2022-09-15T04:41:15.564Z,96765.94
2022-09-15T04:43:44.398Z,96759.75
2022-09-15T04:46:13.324Z,96755.19
2022-09-15T04:48:44.036Z,96760.56
2022-09-15T04:51:13.838Z,96753.31
2022-09-15T04:53:43.160Z,96750.63
2022-09-15T04:56:13.160Z,96749.81
2022-09-15T04:58:42.878Z,96754.38
2022-09-15T05:01:13.865Z,96747.94
2022-09-15T05:03:44.229Z,96750.63
2022-09-15T05:06:14.375Z,96746.91
2022-09-15T05:08:42.766Z,96741.53
2022-09-15T05:11:13.141Z,96746.25
2022-09-15T05:13:41.987Z,96742.28
2022-09-15T05:16:12.673Z,96744.97
2022-09-15T05:18:43.238Z,96740.41
2022-09-15T05:21:13.409Z,96753.44
2022-09-15T05:23:42.076Z,96754.72
2022-09-15T05:26:13.848Z,96761.94
2022-09-15T05:28:42.330Z,96766.28
2022-09-15T05:31:11.972Z,96764.19
2022-09-15T05:33:40.645Z,96761.53
2022-09-15T05:36:10.807Z,96758.59
2022-09-15T05:38:39.240Z,96760.91
2022-09-15T05:41:08.454Z,96762.78
2022-09-15T05:43:37.497Z,96764.19
2022-09-15T05:46:06.608Z,96762.72
2022-09-15T05:48:36.481Z,96761.91
2022-09-15T05:51:05.514Z,96771.84
2022-09-15T05:53:36.596Z,96774.09
2022-09-15T05:56:06.870Z,96763.59
2022-09-15T05:58:35.605Z,96779.47
2022-09-15T06:01:08.000Z,96787.78
2022-09-15T06:03:36.932Z,96790.31
2022-09-15T06:06:07.081Z,96798.97
2022-09-15T06:08:43.766Z,96788.22
2022-09-15T06:11:13.927Z,96806.78
2022-09-15T06:13:42.734Z,96809.94
2022-09-15T06:16:12.369Z,96819.22
2022-09-15T18:42:15.073Z,97125.75
2022-09-15T18:44:44.012Z,97122.84
2022-09-15T18:47:13.214Z,97123.69
2022-09-15T18:49:44.345Z,97112.94
2022-09-15T18:52:13.375Z,97113.97
2022-09-15T18:54:42.018Z,97110.25
2022-09-15T18:57:11.202Z,97110.44
2022-09-15T18:59:42.916Z,97117.69
2022-09-15T19:02:14.547Z,97121.19
2022-09-15T19:04:43.589Z,97123.06
2022-09-15T19:07:12.662Z,97128.44
2022-09-15T19:09:41.395Z,97127.59
2022-09-15T19:12:10.645Z,97132.97
2022-09-15T19:14:44.603Z,97136.50
2022-09-15T19:17:15.481Z,97126.56
2022-09-15T19:19:46.551Z,97141.88
2022-09-15T19:22:15.097Z,97134.63
2022-09-15T19:24:45.053Z,97132.78
2022-09-15T19:27:13.582Z,97139.16
2022-09-15T19:29:43.487Z,97145.38
2022-09-15T19:32:13.953Z,97140.84
2022-09-15T19:34:42.980Z,97152.41
2022-09-15T19:37:16.431Z,97136.28
2022-09-15T19:39:47.113Z,97143.53
2022-09-15T19:44:51.063Z,97150.56
2022-09-15T19:47:19.680Z,97150.56
2022-09-15T19:49:48.355Z,97153.25
2022-09-15T19:52:16.960Z,97149.72
2022-09-15T19:54:45.502Z,97153.25
2022-09-15T19:57:14.000Z,97146.00
2022-09-15T19:59:42.527Z,97144.13
2022-09-15T20:02:16.188Z,97155.72
2022-09-15T20:07:35.236Z,97150.34
2022-09-15T20:10:05.288Z,97158.41
2022-09-15T20:12:35.028Z,97162.56
2022-09-15T20:15:05.199Z,97142.69
2022-09-15T20:17:35.941Z,97156.13
2022-09-15T20:20:06.261Z,97152.81
2022-09-15T20:22:35.787Z,97164.38
2022-09-15T20:25:05.471Z,97159.00
2022-09-15T20:27:34.411Z,97164.38
2022-09-15T20:30:07.922Z,97159.00
2022-09-15T20:32:38.406Z,97160.06
2022-09-15T20:35:11.577Z,97148.50
2022-09-15T20:37:40.755Z,97152.81
2022-09-15T20:40:11.054Z,97153.88
2022-09-15T20:42:43.572Z,97160.06
2022-09-15T20:45:13.154Z,97156.56
2022-09-15T20:47:43.854Z,97166.88
2022-09-15T20:50:13.041Z,97165.66
2022-09-15T20:52:42.500Z,97168.09
2022-09-15T20:55:11.633Z,97180.94
2022-09-15T20:57:43.089Z,97176.59
2022-09-15T21:00:14.576Z,97177.41
2022-09-15T21:02:44.931Z,97185.69
2022-09-15T21:05:13.937Z,97185.69
2022-09-15T21:07:42.763Z,97183.00
2022-09-15T21:10:11.854Z,97188.38
2022-09-15T21:12:40.674Z,97196.03
2022-09-15T21:15:11.344Z,97194.59
2022-09-15T21:17:40.229Z,97191.91
2022-09-15T21:20:11.599Z,97199.13
2022-09-15T21:22:41.120Z,97194.59
2022-09-15T21:25:10.402Z,97201.00
2022-09-15T21:27:39.815Z,97200.19
2022-09-15T21:30:10.274Z,97201.19
2022-09-15T21:32:39.335Z,97210.94
2022-09-15T21:35:10.669Z,97206.38
2022-09-15T21:37:40.138Z,97208.25
2022-09-15T21:40:11.035Z,97222.50
2022-09-15T21:42:39.967Z,97219.81
2022-09-15T21:45:10.532Z,97222.28
2022-09-15T21:47:39.404Z,97216.31
2022-09-15T21:50:11.284Z,97221.69
2022-09-15T21:52:40.453Z,97219.00
2022-09-15T21:55:10.620Z,97229.75
2022-09-15T21:57:39.522Z,97228.88
2022-09-15T22:00:10.744Z,97239.63
2022-09-15T22:02:39.537Z,97231.59
2022-09-15T22:05:10.527Z,97236.13
2022-09-15T22:07:40.519Z,97235.31
2022-09-15T22:10:10.707Z,97240.69
2022-09-15T22:12:39.598Z,97238.63
2022-09-15T22:15:09.869Z,97241.50
2022-09-15T22:17:38.724Z,97242.31
2022-09-15T22:20:10.408Z,97244.19
2022-09-15T22:22:39.230Z,97253.09
2022-09-15T22:25:09.196Z,97249.56
2022-09-15T22:27:38.123Z,97245.25
2022-09-15T22:30:09.194Z,97252.25
2022-09-15T22:32:38.044Z,97258.44
2022-09-15T22:35:09.874Z,97257.63
2022-09-15T22:37:38.772Z,97258.69
2022-09-15T22:40:09.301Z,97260.53
2022-09-15T22:42:38.432Z,97264.88
2022-09-15T22:45:11.799Z,97263.00
2022-09-15T22:47:41.288Z,97269.44
2022-09-15T22:50:12.191Z,97280.19
2022-09-15T22:52:41.070Z,97267.56
2022-09-15T22:55:10.780Z,97272.13
2022-09-15T22:57:39.796Z,97275.63
2022-09-15T23:00:10.836Z,97276.66
2022-09-15T23:02:39.736Z,97280.19
2022-09-15T23:05:10.694Z,97277.50
2022-09-15T23:07:39.118Z,97283.69
2022-09-15T23:10:08.164Z,97287.00
2022-09-15T23:12:36.621Z,97281.81
2022-09-15T23:15:05.791Z,97281.00
2022-09-15T23:17:34.586Z,97272.13
2022-09-15T23:20:03.686Z,97272.13
2022-09-15T23:22:33.622Z,97267.75
2022-09-15T23:25:03.096Z,97278.31
2022-09-15T23:27:31.515Z,97275.81
2022-09-15T23:29:59.977Z,97283.88
2022-09-15T23:32:28.414Z,97282.88
2022-09-15T23:34:56.858Z,97287.41
2022-09-15T23:37:25.382Z,97282.03
2022-09-15T23:39:55.497Z,97288.25
2022-09-15T23:42:24.002Z,97293.63
2022-09-15T23:44:52.483Z,97293.81
2022-09-15T23:47:21.059Z,97299.00
2022-09-15T23:49:49.933Z,97300.84
2022-09-15T23:52:18.565Z,97297.31
2022-09-15T23:54:47.127Z,97291.13
2022-09-15T23:57:17.188Z,97295.66
2022-09-15T23:59:45.633Z,97292.16
